createdAt,value
2023-03-27T00:02:08.227Z,1.30
2023-03-27T00:04:35.100Z,1.30
2023-03-27T00:07:01.962Z,1.30
2023-03-27T00:09:29.720Z,1.20
2023-03-27T00:11:56.661Z,1.20
2023-03-27T00:14:23.959Z,1.10
2023-03-27T00:16:50.971Z,1.10
2023-03-27T00:19:18.781Z,1.00
2023-03-27T00:21:45.438Z,1.10
2023-03-27T00:24:12.616Z,1.00
2023-03-27T00:26:40.399Z,1.00
2023-03-27T00:29:08.135Z,1.00
2023-03-27T00:31:35.141Z,0.90
2023-03-27T00:34:03.189Z,0.90
2023-03-27T00:36:30.107Z,0.90
2023-03-27T00:38:56.870Z,0.80
2023-03-27T00:41:23.719Z,0.80
2023-03-27T00:43:53.274Z,0.80
2023-03-27T00:46:40.201Z,0.80
2023-03-27T00:49:10.803Z,0.70
2023-03-27T00:51:41.009Z,0.70
2023-03-27T00:54:09.670Z,0.70
2023-03-27T00:56:38.562Z,0.70
2023-03-27T00:59:12.332Z,0.60
2023-03-27T01:01:40.012Z,0.50
2023-03-27T01:04:08.933Z,0.50
2023-03-27T01:06:36.840Z,0.50
2023-03-27T01:09:04.546Z,0.50
2023-03-27T01:12:01.849Z,0.50
2023-03-27T01:14:50.992Z,0.40
2023-03-27T01:17:30.317Z,0.40
2023-03-27T01:20:21.638Z,0.50
2023-03-27T01:23:58.485Z,0.40
2023-03-27T01:26:51.525Z,0.30
2023-03-27T01:29:25.205Z,0.30
2023-03-27T01:32:31.010Z,0.40
2023-03-27T01:35:07.949Z,0.30
2023-03-27T01:37:56.312Z,0.30
2023-03-27T01:40:33.253Z,0.30
2023-03-27T01:43:06.870Z,0.30
2023-03-27T01:45:55.895Z,0.20
2023-03-27T01:48:43.486Z,0.20
2023-03-27T01:51:18.055Z,0.20
2023-03-27T01:53:55.659Z,0.20
2023-03-27T01:56:27.396Z,0.20
2023-03-27T01:59:03.862Z,0.10
2023-03-27T02:01:45.622Z,0.20
2023-03-27T02:04:23.540Z,0.10
2023-03-27T02:07:03.455Z,0.10
2023-03-27T02:09:35.618Z,0.00
2023-03-27T02:12:11.750Z,0.00
2023-03-27T02:14:50.717Z,0.00
2023-03-27T02:17:19.128Z,0.00
2023-03-27T02:19:56.018Z,0.00
2023-03-27T02:22:37.306Z,0.00
2023-03-27T02:25:25.616Z,0.00
2023-03-27T02:28:16.996Z,0.00
2023-03-27T02:31:33.276Z,0.10
2023-03-27T02:34:07.975Z,0.00
2023-03-27T02:36:35.941Z,0.00
2023-03-27T02:39:15.773Z,0.00
2023-03-27T02:41:49.014Z,0.10
2023-03-27T02:45:10.143Z,0.00
2023-03-27T02:47:42.272Z,0.00
2023-03-27T02:50:30.695Z,0.10
2023-03-27T02:53:05.852Z,0.10
2023-03-27T02:55:38.862Z,0.00
2023-03-27T02:58:14.941Z,0.00
2023-03-27T03:00:59.278Z,0.00
2023-03-27T03:03:53.725Z,-0.10
2023-03-27T03:06:42.172Z,-0.10
2023-03-27T03:09:09.716Z,0.00
2023-03-27T03:11:44.545Z,0.00
2023-03-27T03:14:11.785Z,0.00
2023-03-27T03:16:39.297Z,0.10
2023-03-27T03:19:06.224Z,0.10
2023-03-27T03:21:33.809Z,0.20
2023-03-27T03:24:01.059Z,0.20
2023-03-27T03:26:27.797Z,0.20
2023-03-27T03:29:00.242Z,0.30
2023-03-27T03:31:43.963Z,0.30
2023-03-27T03:34:16.798Z,0.30
2023-03-27T03:36:48.811Z,0.20
2023-03-27T03:39:18.562Z,0.20
2023-03-27T03:41:48.683Z,0.20
2023-03-27T03:44:15.385Z,0.10
2023-03-27T03:46:42.038Z,0.10
2023-03-27T03:49:09.544Z,0.00
2023-03-27T03:51:37.632Z,0.00
2023-03-27T03:54:06.755Z,-0.10
2023-03-27T03:56:34.279Z,-0.10
2023-03-27T03:59:01.494Z,-0.10
2023-03-27T04:01:28.878Z,-0.20
2023-03-27T04:04:00.343Z,-0.20
2023-03-27T04:06:37.563Z,-0.20
2023-03-27T04:09:05.523Z,-0.30
2023-03-27T04:11:55.005Z,-0.30
2023-03-27T04:14:45.530Z,-0.30
2023-03-27T04:17:33.351Z,-0.40
2023-03-27T04:20:02.090Z,-0.50
2023-03-27T04:22:29.162Z,-0.50
2023-03-27T04:24:57.157Z,-0.40
2023-03-27T04:27:23.844Z,-0.40
2023-03-27T04:30:14.023Z,-0.40
2023-03-27T04:32:59.881Z,-0.40
2023-03-27T04:35:39.882Z,-0.40
2023-03-27T04:38:16.980Z,-0.50
2023-03-27T04:40:49.074Z,-0.50
2023-03-27T04:43:17.296Z,-0.50
2023-03-27T04:45:48.064Z,-0.40
2023-03-27T04:48:15.390Z,-0.40
2023-03-27T04:50:50.617Z,-0.30
2023-03-27T04:53:32.214Z,-0.30
2023-03-27T04:56:01.045Z,-0.30
2023-03-27T04:58:28.260Z,-0.20
2023-03-27T05:00:57.523Z,-0.20
2023-03-27T05:03:43.258Z,-0.20
2023-03-27T05:06:16.260Z,-0.20
2023-03-27T05:08:43.118Z,-0.20
2023-03-27T05:11:19.148Z,-0.20
2023-03-27T05:13:46.634Z,-0.30
2023-03-27T05:16:17.198Z,-0.30
2023-03-27T05:18:46.817Z,-0.20
2023-03-27T05:21:13.652Z,-0.30
2023-03-27T05:23:40.398Z,-0.20
2023-03-27T05:26:08.219Z,-0.20
2023-03-27T05:28:52.392Z,-0.20
2023-03-27T05:31:19.145Z,-0.20
2023-03-27T05:33:53.647Z,-0.20
2023-03-27T05:36:22.102Z,-0.20
2023-03-27T05:38:48.865Z,-0.20
2023-03-27T05:41:27.928Z,-0.20
2023-03-27T05:43:54.662Z,-0.20
2023-03-27T05:46:22.300Z,-0.20
2023-03-27T05:48:54.698Z,-0.20
2023-03-27T05:51:22.545Z,-0.10
2023-03-27T05:53:49.149Z,-0.10
2023-03-27T05:56:21.570Z,-0.10
2023-03-27T05:58:54.139Z,-0.10
2023-03-27T06:01:23.674Z,0.00
2023-03-27T06:03:55.928Z,0.00
2023-03-27T06:06:35.603Z,0.10
2023-03-27T06:09:03.644Z,0.10
2023-03-27T06:11:31.113Z,0.20
2023-03-27T06:13:58.822Z,0.20
2023-03-27T06:16:38.144Z,0.30
2023-03-27T06:19:31.129Z,0.30
2023-03-27T06:21:57.795Z,0.30
2023-03-27T06:24:24.443Z,0.30
2023-03-27T06:26:51.286Z,0.30
2023-03-27T06:29:19.484Z,0.30
2023-03-27T06:31:49.446Z,0.40
2023-03-27T06:34:24.138Z,0.50
2023-03-27T06:37:13.451Z,0.60
2023-03-27T06:39:42.734Z,0.60
2023-03-27T06:42:09.521Z,0.60
2023-03-27T06:44:51.587Z,0.50
2023-03-27T06:47:44.410Z,0.40
2023-03-27T06:50:34.096Z,0.50
2023-03-27T06:53:01.575Z,0.60
2023-03-27T06:55:56.305Z,0.70
2023-03-27T06:58:24.502Z,0.60
2023-03-27T07:00:51.486Z,0.70
2023-03-27T07:03:20.097Z,0.70
2023-03-27T07:06:02.072Z,0.70
2023-03-27T07:08:36.536Z,0.70
2023-03-27T07:13:34.633Z,0.90
2023-03-27T07:16:05.184Z,0.90
2023-03-27T07:18:33.248Z,0.90
2023-03-27T07:21:00.258Z,1.00
2023-03-27T07:23:27.563Z,1.00
2023-03-27T07:26:01.723Z,1.00
2023-03-27T07:29:03.839Z,1.00
2023-03-27T07:31:42.354Z,1.10
2023-03-27T07:34:18.272Z,1.20
2023-03-27T07:37:05.006Z,1.20
2023-03-27T07:39:33.545Z,1.30
2023-03-27T07:42:00.640Z,1.40
2023-03-27T07:44:33.066Z,1.60
2023-03-27T07:47:04.237Z,1.60
2023-03-27T07:49:39.729Z,1.50
2023-03-27T07:52:09.007Z,1.60
2023-03-27T07:54:42.963Z,1.70
2023-03-27T07:57:10.983Z,2.00
2023-03-27T07:59:57.404Z,2.00
2023-03-27T08:02:31.299Z,2.10
2023-03-27T08:04:58.112Z,2.00
2023-03-27T08:07:25.355Z,1.90
2023-03-27T08:09:57.334Z,2.10
2023-03-27T08:12:24.186Z,2.10
2023-03-27T08:14:57.337Z,2.30
2023-03-27T08:17:28.138Z,2.60
2023-03-27T08:19:55.772Z,2.80
2023-03-27T08:22:24.465Z,3.00
2023-03-27T08:25:14.330Z,3.30
2023-03-27T08:27:43.323Z,3.60
2023-03-27T08:30:11.693Z,3.80
2023-03-27T08:32:41.235Z,4.00
2023-03-27T08:35:10.157Z,3.80
2023-03-27T08:37:36.752Z,3.60
2023-03-27T08:40:48.082Z,3.50
2023-03-27T08:43:33.486Z,3.30
2023-03-27T08:46:20.654Z,3.40
2023-03-27T08:49:14.997Z,3.60
2023-03-27T08:52:08.627Z,3.60
2023-03-27T08:54:39.315Z,3.50
2023-03-27T08:57:21.226Z,3.60
2023-03-27T08:59:57.371Z,3.60
2023-03-27T09:02:45.625Z,3.60
2023-03-27T09:05:19.278Z,3.50
2023-03-27T09:08:07.983Z,3.60
2023-03-27T09:10:37.568Z,4.00
2023-03-27T09:13:51.600Z,4.10
2023-03-27T09:16:31.830Z,4.30
2023-03-27T09:19:22.510Z,4.50
2023-03-27T09:21:52.656Z,4.50
2023-03-27T09:24:43.125Z,4.50
2023-03-27T09:27:32.444Z,4.40
2023-03-27T09:30:10.797Z,4.40
2023-03-27T09:32:58.145Z,4.70
2023-03-27T09:35:25.288Z,4.90
2023-03-27T09:37:58.354Z,4.90
2023-03-27T09:40:45.698Z,4.60
2023-03-27T09:43:24.400Z,4.30
2023-03-27T09:45:53.416Z,4.20
2023-03-27T09:48:46.857Z,4.00
2023-03-27T09:51:54.426Z,3.90
2023-03-27T09:54:56.086Z,4.00
2023-03-27T09:57:35.615Z,4.20
2023-03-27T10:00:09.798Z,4.30
2023-03-27T10:02:41.589Z,4.00
2023-03-27T10:05:19.952Z,3.60
2023-03-27T10:07:51.695Z,3.10
2023-03-27T10:10:45.344Z,2.90
2023-03-27T10:13:48.042Z,3.00
2023-03-27T10:16:21.444Z,3.40
2023-03-27T10:19:00.748Z,3.90
2023-03-27T10:21:35.438Z,4.40
2023-03-27T10:24:21.511Z,4.60
2023-03-27T10:27:12.009Z,4.70
2023-03-27T10:29:44.624Z,4.50
2023-03-27T10:32:14.508Z,5.00
2023-03-27T10:34:58.521Z,5.60
2023-03-27T10:37:41.047Z,6.10
2023-03-27T10:40:39.360Z,5.80
2023-03-27T10:43:30.327Z,5.50
2023-03-27T10:46:06.121Z,5.30
2023-03-27T10:48:47.600Z,5.30
2023-03-27T10:51:48.390Z,5.40
2023-03-27T10:54:44.267Z,5.70
2023-03-27T10:57:24.554Z,5.60
2023-03-27T11:00:13.383Z,5.60
2023-03-27T11:02:57.474Z,5.70
2023-03-27T11:05:30.328Z,6.10
2023-03-27T11:08:23.354Z,6.30
2023-03-27T11:10:50.919Z,6.30
2023-03-27T11:13:36.236Z,5.90
2023-03-27T11:16:39.728Z,5.70
2023-03-27T11:19:34.079Z,5.90
2023-03-27T11:22:45.220Z,6.10
2023-03-27T11:25:39.684Z,6.10
2023-03-27T11:28:19.421Z,6.10
2023-03-27T11:30:51.599Z,6.10
2023-03-27T11:33:36.910Z,6.60
2023-03-27T11:36:29.906Z,6.80
2023-03-27T11:39:36.348Z,6.50
2023-03-27T11:42:16.544Z,6.30
2023-03-27T11:44:43.571Z,5.90
2023-03-27T11:47:26.556Z,5.90
2023-03-27T11:50:07.880Z,5.80
2023-03-27T11:53:09.519Z,5.60
2023-03-27T11:56:16.665Z,5.50
2023-03-27T11:59:12.523Z,5.40
2023-03-27T12:01:55.698Z,5.20
2023-03-27T12:04:57.656Z,4.70
2023-03-27T12:07:52.677Z,4.80
2023-03-27T12:10:29.034Z,5.20
2023-03-27T12:13:41.273Z,5.60
2023-03-27T12:17:01.022Z,5.40
2023-03-27T12:20:11.628Z,5.20
2023-03-27T12:22:48.052Z,4.20
2023-03-27T12:26:16.813Z,3.30
2023-03-27T12:29:24.724Z,2.90
2023-03-27T12:32:21.720Z,2.80
2023-03-27T12:34:59.584Z,3.20
2023-03-27T12:38:02.064Z,3.50
2023-03-27T12:40:41.770Z,3.40
2023-03-27T12:43:21.794Z,3.50
2023-03-27T12:46:23.247Z,4.10
2023-03-27T12:48:59.922Z,4.60
2023-03-27T12:51:54.388Z,5.00
2023-03-27T12:55:06.913Z,5.20
2023-03-27T12:57:57.548Z,5.30
2023-03-27T13:01:01.240Z,5.60
2023-03-27T13:04:24.501Z,5.70
2023-03-27T13:06:57.376Z,6.00
2023-03-27T13:09:53.936Z,5.80
2023-03-27T13:12:38.914Z,5.80
2023-03-27T13:15:31.490Z,5.70
2023-03-27T13:18:25.454Z,6.00
2023-03-27T13:21:07.460Z,6.00
2023-03-27T13:24:03.663Z,6.00
2023-03-27T13:26:44.829Z,6.00
2023-03-27T13:29:30.548Z,6.30
2023-03-27T13:32:22.455Z,6.70
2023-03-27T13:35:27.029Z,7.00
2023-03-27T13:37:58.427Z,7.10
2023-03-27T13:40:36.530Z,6.50
2023-03-27T13:43:26.462Z,5.80
2023-03-27T13:46:06.057Z,4.40
2023-03-27T13:48:57.174Z,3.60
2023-03-27T13:51:48.020Z,3.20
2023-03-27T13:54:35.508Z,3.00
2023-03-27T13:57:14.684Z,3.00
2023-03-27T13:59:47.565Z,3.10
2023-03-27T14:02:34.654Z,3.30
2023-03-27T14:05:13.441Z,3.40
2023-03-27T14:08:15.358Z,3.40
2023-03-27T14:11:21.564Z,3.50
2023-03-27T14:13:54.244Z,3.40
2023-03-27T14:16:47.680Z,3.10
2023-03-27T14:19:47.088Z,2.80
2023-03-27T14:22:27.823Z,2.40
2023-03-27T14:25:02.757Z,2.00
2023-03-27T14:27:43.132Z,1.90
2023-03-27T14:30:19.089Z,2.10
2023-03-27T14:32:55.143Z,2.50
2023-03-27T14:35:43.787Z,2.80
2023-03-27T14:38:33.597Z,2.70
2023-03-27T14:41:06.805Z,2.60
2023-03-27T14:43:48.164Z,2.60
2023-03-27T14:46:15.994Z,2.40
2023-03-27T14:48:46.352Z,2.40
2023-03-27T14:51:19.453Z,2.40
2023-03-27T14:53:49.588Z,2.40
2023-03-27T14:56:38.177Z,2.40
2023-03-27T14:59:26.584Z,2.50
2023-03-27T15:02:02.363Z,3.10
2023-03-27T15:04:31.472Z,3.30
2023-03-27T15:07:21.065Z,3.30
2023-03-27T15:10:25.930Z,3.20
2023-03-27T15:13:26.069Z,3.00
2023-03-27T15:15:59.661Z,2.90
2023-03-27T15:18:38.751Z,2.80
2023-03-27T15:21:14.228Z,2.90
2023-03-27T15:23:55.787Z,3.00
2023-03-27T15:26:26.913Z,2.80
2023-03-27T15:29:07.879Z,2.50
2023-03-27T15:31:36.321Z,2.50
2023-03-27T15:34:21.480Z,2.40
2023-03-27T15:36:58.329Z,2.50
2023-03-27T15:39:26.412Z,2.40
2023-03-27T15:42:02.522Z,2.50
2023-03-27T15:44:32.294Z,2.50
2023-03-27T15:47:00.404Z,2.50
2023-03-27T15:49:37.004Z,2.50
2023-03-27T15:52:31.254Z,2.60
2023-03-27T15:55:00.502Z,2.60
2023-03-27T15:57:31.168Z,2.60
2023-03-27T16:00:08.502Z,2.30
2023-03-27T16:02:40.391Z,1.90
2023-03-27T16:05:07.403Z,1.60
2023-03-27T16:07:42.344Z,1.40
2023-03-27T16:10:10.791Z,1.30
2023-03-27T16:13:01.814Z,1.30
2023-03-27T16:15:45.015Z,1.40
2023-03-27T16:18:19.840Z,1.50
2023-03-27T16:20:47.126Z,1.50
2023-03-27T16:23:13.782Z,1.60
2023-03-27T16:25:41.273Z,1.70
2023-03-27T16:28:09.414Z,1.70
2023-03-27T16:30:41.907Z,1.80
2023-03-27T16:33:17.439Z,1.90
2023-03-27T16:35:45.294Z,1.90
2023-03-27T16:38:13.784Z,2.00
2023-03-27T16:40:40.628Z,2.00
2023-03-27T16:43:07.445Z,2.00
2023-03-27T16:45:34.694Z,1.90
2023-03-27T16:48:01.551Z,2.00
2023-03-27T16:50:29.400Z,2.00
2023-03-27T16:52:56.429Z,2.00
2023-03-27T16:55:24.899Z,2.00
2023-03-27T16:57:53.874Z,2.10
2023-03-27T17:00:21.099Z,2.10
2023-03-27T17:02:47.854Z,2.20
2023-03-27T17:05:15.360Z,2.20
2023-03-27T17:07:42.363Z,2.20
2023-03-27T17:10:10.111Z,2.20
2023-03-27T17:12:36.921Z,2.30
2023-03-27T17:15:03.842Z,2.40
2023-03-27T17:17:30.875Z,2.50
2023-03-27T17:19:57.676Z,2.60
2023-03-27T17:22:26.245Z,2.80
2023-03-27T17:24:56.967Z,2.90
2023-03-27T17:27:26.271Z,2.80
2023-03-27T17:29:55.345Z,2.70
2023-03-27T17:32:22.273Z,2.60
2023-03-27T17:34:50.753Z,2.50
2023-03-27T17:37:18.648Z,2.50
2023-03-27T17:39:45.297Z,2.50
2023-03-27T17:42:12.197Z,2.50
2023-03-27T17:44:39.493Z,2.50
2023-03-27T17:47:07.433Z,2.50
2023-03-27T17:49:34.641Z,2.50
2023-03-27T17:52:07.483Z,2.50
2023-03-27T17:54:34.765Z,2.50
2023-03-27T17:57:01.673Z,2.50
2023-03-27T17:59:30.827Z,2.50
2023-03-27T18:01:58.252Z,2.40
2023-03-27T18:04:25.692Z,2.40
2023-03-27T18:06:52.879Z,2.40
2023-03-27T18:09:20.319Z,2.40
2023-03-27T18:11:47.076Z,2.30
2023-03-27T18:14:13.731Z,2.30
2023-03-27T18:16:40.481Z,2.30
2023-03-27T18:19:08.637Z,2.30
2023-03-27T18:21:35.991Z,2.30
2023-03-27T18:24:02.748Z,2.20
2023-03-27T18:26:29.573Z,2.10
2023-03-27T18:28:57.500Z,2.10
2023-03-27T18:31:24.522Z,2.10
2023-03-27T18:33:51.270Z,2.00
2023-03-27T18:36:18.053Z,2.00
2023-03-27T18:38:45.952Z,1.90
2023-03-27T18:41:13.453Z,2.00
2023-03-27T18:43:40.150Z,2.00
2023-03-27T18:46:07.614Z,1.90
2023-03-27T18:48:35.198Z,1.90
2023-03-27T18:51:03.981Z,1.90
2023-03-27T18:53:31.239Z,1.90
2023-03-27T18:55:58.914Z,1.80
2023-03-27T18:58:27.593Z,1.80
2023-03-27T19:00:55.621Z,1.80
2023-03-27T19:03:24.587Z,1.90
2023-03-27T19:05:52.649Z,1.90
2023-03-27T19:08:20.979Z,1.90
2023-03-27T19:10:47.710Z,1.90
2023-03-27T19:13:22.553Z,1.90
2023-03-27T19:15:55.245Z,2.00
2023-03-27T19:18:57.192Z,2.00
2023-03-27T19:21:38.477Z,2.10
2023-03-27T19:24:08.872Z,2.00
2023-03-27T19:26:41.861Z,2.10
2023-03-27T19:29:09.059Z,2.00
2023-03-27T19:31:36.403Z,2.00
2023-03-27T19:34:03.953Z,2.00
2023-03-27T19:36:31.332Z,2.00
2023-03-27T19:38:59.104Z,1.90
2023-03-27T19:41:25.876Z,1.90
2023-03-27T19:43:53.011Z,1.90
2023-03-27T19:46:19.678Z,1.90
2023-03-27T19:48:51.243Z,1.80
2023-03-27T19:51:25.924Z,1.80
2023-03-27T19:53:52.702Z,1.70
2023-03-27T19:56:22.362Z,1.70
2023-03-27T19:58:49.355Z,1.70
2023-03-27T20:01:19.639Z,1.70
2023-03-27T20:03:46.563Z,1.80
2023-03-27T20:06:18.790Z,1.80
2023-03-27T20:08:45.677Z,1.70
2023-03-27T20:11:14.833Z,1.70
2023-03-27T20:13:53.208Z,1.70
2023-03-27T20:16:26.097Z,1.60
2023-03-27T20:19:03.252Z,1.60
2023-03-27T20:21:35.978Z,1.50
2023-03-27T20:24:06.642Z,1.50
2023-03-27T20:26:39.254Z,1.50
2023-03-27T20:29:17.853Z,1.50
2023-03-27T20:31:45.814Z,1.50
2023-03-27T20:34:12.531Z,1.50
2023-03-27T20:36:39.507Z,1.40
2023-03-27T20:39:21.071Z,1.30
2023-03-27T20:41:47.822Z,1.30
2023-03-27T20:44:17.118Z,1.30
2023-03-27T20:46:50.911Z,1.30
2023-03-27T20:49:39.844Z,1.30
2023-03-27T20:52:13.533Z,1.30
2023-03-27T20:54:40.502Z,1.20
2023-03-27T20:57:09.720Z,1.20
2023-03-27T20:59:36.466Z,1.20
2023-03-27T21:02:03.397Z,1.20
2023-03-27T21:04:31.560Z,1.20
2023-03-27T21:06:58.847Z,1.20
2023-03-27T21:09:27.067Z,1.20
2023-03-27T21:11:55.127Z,1.20
2023-03-27T21:14:22.218Z,1.20
2023-03-27T21:16:49.227Z,1.20
2023-03-27T21:19:16.889Z,1.30
2023-03-27T21:21:43.963Z,1.30
2023-03-27T21:24:10.760Z,1.30
2023-03-27T21:26:37.388Z,1.30
2023-03-27T21:29:04.298Z,1.30
2023-03-27T21:31:31.028Z,1.20
2023-03-27T21:33:57.752Z,1.20
2023-03-27T21:36:26.517Z,1.20
2023-03-27T21:38:55.091Z,1.20
2023-03-27T21:41:22.033Z,1.20
2023-03-27T21:43:48.678Z,1.20
2023-03-27T21:46:15.588Z,1.30
2023-03-27T21:48:44.593Z,1.40
2023-03-27T21:51:11.474Z,1.30
2023-03-27T21:53:38.248Z,1.40
2023-03-27T21:56:05.456Z,1.40
2023-03-27T21:58:32.060Z,1.40
2023-03-27T22:00:59.542Z,1.40
2023-03-27T22:03:28.301Z,1.50
2023-03-27T22:06:10.194Z,1.40
2023-03-27T22:08:38.941Z,1.40
2023-03-27T22:11:06.551Z,1.40
2023-03-27T22:13:36.042Z,1.40
2023-03-27T22:16:12.259Z,1.30
2023-03-27T22:18:39.400Z,1.30
2023-03-27T22:21:25.379Z,1.20
2023-03-27T22:23:53.553Z,1.20
2023-03-27T22:26:22.318Z,1.20
2023-03-27T22:28:49.589Z,1.20
2023-03-27T22:31:16.462Z,1.20
2023-03-27T22:33:43.188Z,1.20
2023-03-27T22:36:11.704Z,1.30
2023-03-27T22:38:39.282Z,1.30
2023-03-27T22:41:08.433Z,1.30
2023-03-27T22:43:35.111Z,1.40
2023-03-27T22:46:07.064Z,1.40
2023-03-27T22:48:34.486Z,1.40
2023-03-27T22:51:01.655Z,1.50
2023-03-27T22:53:28.906Z,1.50
2023-03-27T22:55:57.433Z,1.50
2023-03-27T22:58:24.845Z,1.50
2023-03-27T23:00:52.850Z,1.50
2023-03-27T23:03:20.353Z,1.50
2023-03-27T23:05:49.222Z,1.50
2023-03-27T23:08:18.100Z,1.50
2023-03-27T23:10:45.603Z,1.50
2023-03-27T23:13:12.697Z,1.50
2023-03-27T23:15:39.390Z,1.40
2023-03-27T23:18:06.613Z,1.40
2023-03-27T23:20:33.308Z,1.40
2023-03-27T23:23:00.291Z,1.40
2023-03-27T23:25:26.938Z,1.40
2023-03-27T23:27:53.756Z,1.40
2023-03-27T23:30:20.428Z,1.40
2023-03-27T23:32:47.121Z,1.30
2023-03-27T23:35:13.901Z,1.30
2023-03-27T23:37:40.766Z,1.30
2023-03-27T23:40:08.201Z,1.30
2023-03-27T23:42:34.871Z,1.40
2023-03-27T23:45:01.790Z,1.40
2023-03-27T23:47:28.452Z,1.40
2023-03-27T23:49:55.132Z,1.40
2023-03-27T23:52:21.755Z,1.40
2023-03-27T23:54:48.389Z,1.40
2023-03-27T23:57:15.156Z,1.40
2023-03-27T23:59:41.862Z,1.30
